Time;durP1;ratioP1;P1;durP2;ratioP2;P2;SDS_P1;SDS_P2;PMS_P1;PMS_P2;Temp;Humidity;BMP_temperature;BMP_pressure;BME280_temperature;BME280_humidity;BME280_pressure;Samples;Min_cycle;Max_cycle;Signal;HPM_P1;HPM_P2
2023/10/21 00:08:31;;;;;;;15.00;7.40;;;24.70;99.90;;;;;;5023605;28;20213;-75
2023/10/21 00:15:06;;;;;;;14.18;7.57;;;24.50;99.90;;;;;;5031790;28;20610;-77
2023/10/21 00:20:46;;;;;;;13.75;8.23;;;24.50;99.90;;;;;;5004684;28;20206;-78
2023/10/21 00:27:17;;;;;;;11.23;6.90;;;24.70;99.90;;;;;;5015089;28;20198;-78
2023/10/21 00:30:08;;;;;;;10.05;7.20;;;24.70;99.90;;;;;;4995655;28;20202;-78
2023/10/21 00:35:50;;;;;;;10.43;7.32;;;24.90;99.90;;;;;;5021590;28;20225;-78
2023/10/21 00:38:21;;;;;;;14.45;7.80;;;24.90;99.90;;;;;;5013546;28;20221;-78
2023/10/21 00:40:55;;;;;;;12.52;7.53;;;24.80;99.90;;;;;;5019192;28;20638;-78
2023/10/21 00:44:05;;;;;;;12.55;7.88;;;24.80;99.90;;;;;;5042361;28;20197;-79
2023/10/21 00:46:36;;;;;;;11.30;7.53;;;25.00;99.90;;;;;;5034149;28;20286;-78
2023/10/21 00:49:35;;;;;;;12.75;7.80;;;25.00;99.90;;;;;;5017405;28;20206;-78
2023/10/21 00:56:32;;;;;;;15.40;7.93;;;25.40;99.90;;;;;;5023207;28;20642;-78
2023/10/21 00:59:29;;;;;;;10.10;7.10;;;25.70;99.90;;;;;;4946004;29;20232;-78
2023/10/21 01:08:05;;;;;;;10.85;6.82;;;25.80;99.90;;;;;;5126814;22;20234;-96
2023/10/21 01:10:35;;;;;;;10.82;7.03;;;25.80;99.90;;;;;;5015377;28;20296;-96
2023/10/21 01:13:06;;;;;;;10.82;7.50;;;25.60;99.90;;;;;;5013876;28;20202;-96
2023/10/21 01:15:37;;;;;;;11.80;7.60;;;25.50;99.90;;;;;;5015033;28;20293;-96
2023/10/21 01:18:09;;;;;;;10.32;7.38;;;25.60;99.90;;;;;;5015299;28;20234;-96
2023/10/21 01:20:42;;;;;;;11.52;7.22;;;25.70;99.90;;;;;;5013199;28;20212;-95
2023/10/21 01:23:19;;;;;;;10.10;7.53;;;25.70;99.90;;;;;;5015379;28;20202;-96
2023/10/21 01:25:50;;;;;;;12.90;8.00;;;25.60;99.90;;;;;;5025414;28;20228;-95
2023/10/21 01:28:22;;;;;;;13.77;8.55;;;25.70;99.90;;;;;;5026883;28;20210;-95
2023/10/21 01:30:52;;;;;;;11.90;8.13;;;25.80;99.90;;;;;;5018146;28;20202;-94
2023/10/21 01:33:23;;;;;;;14.10;8.43;;;25.60;99.90;;;;;;5016092;28;20208;-95
2023/10/21 01:35:55;;;;;;;15.20;9.38;;;25.60;99.90;;;;;;5016832;28;20210;-96
2023/10/21 01:38:30;;;;;;;14.02;8.75;;;25.70;99.90;;;;;;5017346;28;20316;-95
2023/10/21 01:41:01;;;;;;;15.52;8.82;;;25.80;99.90;;;;;;5016387;28;20243;-95
2023/10/21 01:43:32;;;;;;;13.77;8.73;;;25.90;99.90;;;;;;5016087;28;20213;-96
2023/10/21 01:46:07;;;;;;;13.52;9.15;;;26.10;99.90;;;;;;5016080;28;20225;-95
2023/10/21 01:48:38;;;;;;;16.55;9.70;;;26.10;99.90;;;;;;4998088;28;20214;-95
2023/10/21 01:51:09;;;;;;;13.80;9.75;;;26.10;99.90;;;;;;5004679;28;20214;-95
2023/10/21 01:53:46;;;;;;;14.65;9.43;;;26.30;99.90;;;;;;5017956;28;20230;-95
2023/10/21 01:56:17;;;;;;;17.05;9.43;;;26.40;99.90;;;;;;5019059;28;20237;-95
2023/10/21 01:58:49;;;;;;;11.80;9.15;;;26.50;99.90;;;;;;5025679;28;20225;-95
2023/10/21 02:01:20;;;;;;;13.55;9.57;;;26.60;99.90;;;;;;5025837;28;20229;-95
2023/10/21 02:03:53;;;;;;;13.65;9.52;;;26.70;99.90;;;;;;5024139;28;20273;-96
2023/10/21 02:06:25;;;;;;;13.60;9.30;;;26.70;99.90;;;;;;5017597;28;20284;-94
2023/10/21 02:09:01;;;;;;;13.02;9.18;;;26.90;99.90;;;;;;4983500;28;20237;-96
2023/10/21 02:11:32;;;;;;;15.40;9.32;;;27.00;99.90;;;;;;4971488;28;20246;-96
2023/10/21 02:14:04;;;;;;;12.02;8.88;;;27.00;99.90;;;;;;4978852;28;20278;-96
2023/10/21 02:16:35;;;;;;;12.15;9.27;;;27.00;99.90;;;;;;4980250;28;20271;-96
2023/10/21 02:19:05;;;;;;;11.60;9.10;;;27.00;99.90;;;;;;4976988;28;20258;-96
2023/10/21 02:21:38;;;;;;;11.93;9.13;;;27.20;99.90;;;;;;4977058;28;20211;-96
2023/10/21 02:24:14;;;;;;;11.35;8.35;;;27.30;99.90;;;;;;4977864;28;20266;-96
2023/10/21 02:26:45;;;;;;;11.00;8.27;;;27.30;99.90;;;;;;4978365;28;20207;-96
2023/10/21 02:29:18;;;;;;;13.10;8.10;;;27.40;99.90;;;;;;4970209;28;20267;-96
2023/10/21 02:31:49;;;;;;;11.40;8.80;;;27.40;99.90;;;;;;4972357;28;20234;-96
2023/10/21 02:34:20;;;;;;;10.75;7.93;;;27.30;99.90;;;;;;4976304;28;20671;-96
2023/10/21 02:36:52;;;;;;;13.10;7.30;;;27.20;99.90;;;;;;4978814;28;20291;-94
2023/10/21 02:39:27;;;;;;;10.02;7.93;;;27.20;99.90;;;;;;4979141;28;20231;-95
2023/10/21 02:41:59;;;;;;;12.60;7.47;;;27.30;99.90;;;;;;4977121;28;20266;-95
2023/10/21 02:44:31;;;;;;;10.25;6.80;;;27.30;99.90;;;;;;4977141;28;20215;-94
2023/10/21 02:47:02;;;;;;;12.90;6.97;;;27.30;99.90;;;;;;4964689;28;20579;-94
2023/10/21 02:49:33;;;;;;;12.80;6.30;;;27.30;99.90;;;;;;4958296;29;20713;-96
2023/10/21 02:52:04;;;;;;;9.90;5.65;;;27.30;99.90;;;;;;4973516;28;20331;-95
2023/10/21 02:54:37;;;;;;;11.07;6.38;;;27.40;99.90;;;;;;4976573;28;20234;-95
2023/10/21 02:57:09;;;;;;;10.23;5.72;;;27.30;99.90;;;;;;4985774;28;20199;-96
2023/10/21 02:59:41;;;;;;;12.90;5.93;;;27.20;99.90;;;;;;4982473;28;20290;-96
2023/10/21 03:02:13;;;;;;;11.30;5.45;;;27.10;99.90;;;;;;4979688;28;20718;-96
2023/10/21 03:04:44;;;;;;;9.80;5.38;;;27.10;99.90;;;;;;4981504;28;20215;-95
2023/10/21 03:07:16;;;;;;;8.55;5.22;;;27.10;99.90;;;;;;4996246;28;20253;-95
2023/10/21 03:10:19;;;;;;;11.38;4.75;;;27.10;99.90;;;;;;5031501;28;20209;-96
2023/10/21 03:15:32;;;;;;;9.02;4.32;;;27.20;99.90;;;;;;5253550;22;20721;-94
2023/10/21 03:21:06;;;;;;;8.07;4.35;;;27.10;99.90;;;;;;5027522;28;20287;-95
2023/10/21 03:23:43;;;;;;;9.75;4.03;;;27.20;99.90;;;;;;5064977;22;20208;-78
2023/10/21 03:26:13;;;;;;;7.53;3.90;;;27.10;99.90;;;;;;5043105;28;20229;-78
2023/10/21 03:28:46;;;;;;;9.88;3.28;;;27.10;99.90;;;;;;5044601;28;20205;-79
2023/10/21 03:31:39;;;;;;;6.97;3.50;;;26.90;99.90;;;;;;5028025;28;20229;-79
2023/10/21 03:34:10;;;;;;;10.10;3.83;;;26.80;99.90;;;;;;5021227;28;20594;-79
2023/10/21 03:36:41;;;;;;;8.45;3.72;;;27.00;99.90;;;;;;5042427;28;20211;-78
2023/10/21 03:39:12;;;;;;;10.10;4.28;;;27.30;99.90;;;;;;5033882;28;20359;-78
2023/10/21 03:41:45;;;;;;;10.68;4.22;;;27.40;99.90;;;;;;5020027;28;20245;-80
2023/10/21 03:44:51;;;;;;;11.85;4.20;;;27.20;99.90;;;;;;5003193;28;20198;-77
2023/10/21 03:47:41;;;;;;;8.85;4.55;;;27.00;99.90;;;;;;5006559;28;20214;-80
2023/10/21 03:50:12;;;;;;;8.52;3.97;;;26.90;99.90;;;;;;5005224;28;20281;-79
2023/10/21 03:53:50;;;;;;;11.02;4.50;;;26.70;99.90;;;;;;5019049;28;20541;-80
2023/10/21 04:02:49;;;;;;;13.70;5.30;;;26.00;99.90;;;;;;5005434;28;20651;-78
2023/10/21 04:12:30;;;;;;;11.98;5.68;;;26.00;99.90;;;;;;5032081;28;20190;-78
2023/10/21 04:15:07;;;;;;;13.48;6.03;;;26.30;99.90;;;;;;5009958;28;20460;-80
2023/10/21 04:18:12;;;;;;;12.63;5.45;;;26.50;99.90;;;;;;5010894;28;20234;-78
2023/10/21 04:21:14;;;;;;;12.40;5.75;;;26.80;99.90;;;;;;5010314;28;20237;-78
2023/10/21 04:23:53;;;;;;;14.20;5.72;;;26.90;99.90;;;;;;5007349;28;20203;-79
2023/10/21 04:35:45;;;;;;;16.13;6.18;;;27.00;99.90;;;;;;4989018;28;20210;-81
2023/10/21 04:38:18;;;;;;;13.07;5.57;;;27.00;99.90;;;;;;5005008;28;20194;-79
2023/10/21 04:44:39;;;;;;;13.82;5.55;;;27.20;99.90;;;;;;5006179;28;20210;-79
2023/10/21 04:47:12;;;;;;;12.80;5.47;;;27.50;99.90;;;;;;5020270;28;20240;-79
2023/10/21 05:01:25;;;;;;;16.67;5.28;;;26.70;99.90;;;;;;4978328;28;20229;-79
2023/10/21 05:04:16;;;;;;;13.23;5.47;;;26.70;99.90;;;;;;5025420;28;20235;-80
2023/10/21 05:06:52;;;;;;;20.98;5.88;;;26.40;99.90;;;;;;5071760;28;20208;-78
2023/10/21 05:16:15;;;;;;;14.05;4.60;;;26.40;99.90;;;;;;5086083;28;20222;-78
2023/10/21 05:19:15;;;;;;;14.27;4.80;;;27.00;99.90;;;;;;5079987;28;20211;-78
2023/10/21 05:22:12;;;;;;;13.40;4.53;;;27.40;99.90;;;;;;5089797;28;20188;-78
2023/10/21 05:25:43;;;;;;;11.32;3.95;;;27.00;99.90;;;;;;5088418;28;20465;-78
2023/10/21 05:28:15;;;;;;;18.08;4.72;;;26.60;99.90;;;;;;5070718;22;20266;-95
2023/10/21 05:30:46;;;;;;;14.15;4.50;;;26.30;99.90;;;;;;5055212;28;20196;-95
2023/10/21 05:33:17;;;;;;;15.52;4.43;;;26.40;99.90;;;;;;5055100;28;20204;-95
2023/10/21 05:35:52;;;;;;;14.35;4.50;;;26.80;99.90;;;;;;5051474;28;20263;-96
2023/10/21 05:38:24;;;;;;;15.63;4.95;;;27.10;99.90;;;;;;5042011;28;20235;-95
2023/10/21 05:40:56;;;;;;;18.13;5.05;;;27.20;99.90;;;;;;5055970;28;20227;-95
2023/10/21 05:43:29;;;;;;;15.00;4.50;;;27.20;99.90;;;;;;5056602;28;20614;-95
2023/10/21 05:46:04;;;;;;;12.32;4.95;;;27.30;99.90;;;;;;5055838;28;20291;-95
2023/10/21 05:48:36;;;;;;;13.27;4.95;;;27.60;99.90;;;;;;5056057;28;20296;-96
2023/10/21 05:51:10;;;;;;;13.52;4.47;;;27.50;99.90;;;;;;5055583;28;20206;-96
2023/10/21 05:53:41;;;;;;;12.27;4.40;;;27.70;99.90;;;;;;5045522;28;20286;-94
2023/10/21 05:56:17;;;;;;;10.98;4.60;;;28.00;99.90;;;;;;5056660;28;20264;-96
2023/10/21 05:58:50;;;;;;;14.98;4.60;;;28.20;99.90;;;;;;5066177;28;20200;-95
2023/10/21 06:01:28;;;;;;;9.93;4.20;;;28.30;99.90;;;;;;5063338;28;20212;-95
2023/10/21 06:04:01;;;;;;;12.65;4.82;;;28.30;99.90;;;;;;5043422;28;20220;-96
2023/10/21 06:06:49;;;;;;;14.98;4.97;;;28.20;99.90;;;;;;5047146;28;20213;-95
2023/10/21 06:09:34;;;;;;;11.75;4.63;;;28.20;99.90;;;;;;5060548;28;20263;-95
2023/10/21 06:12:10;;;;;;;14.32;4.75;;;28.30;99.90;;;;;;5071691;28;20224;-94
2023/10/21 06:14:45;;;;;;;18.85;5.25;;;28.40;99.90;;;;;;5064357;28;20235;-94
2023/10/21 06:17:20;;;;;;;15.90;4.90;;;28.30;99.90;;;;;;5058635;28;20263;-95
2023/10/21 06:19:51;;;;;;;16.02;5.47;;;28.20;99.90;;;;;;5061843;28;20242;-95
2023/10/21 06:22:27;;;;;;;12.52;5.05;;;28.40;99.90;;;;;;5061488;28;20216;-95
2023/10/21 06:25:04;;;;;;;13.82;5.25;;;28.50;99.90;;;;;;5060162;28;20226;-96
2023/10/21 06:27:35;;;;;;;12.88;5.20;;;28.80;99.90;;;;;;5057758;28;20725;-95
2023/10/21 06:30:06;;;;;;;17.58;5.65;;;28.40;99.90;;;;;;5056374;28;20283;-96
2023/10/21 06:32:37;;;;;;;17.85;5.90;;;28.50;99.90;;;;;;5059574;28;20610;-94
2023/10/21 06:35:09;;;;;;;18.88;6.20;;;28.60;99.90;;;;;;5061910;28;20192;-96
2023/10/21 06:40:46;;;;;;;19.70;6.10;;;28.40;99.90;;;;;;5061257;28;20216;-96
2023/10/21 06:43:18;;;;;;;14.23;6.30;;;28.60;99.90;;;;;;5057312;28;20273;-96
2023/10/21 06:45:49;;;;;;;16.83;6.10;;;28.60;99.90;;;;;;5043957;28;20612;-95
2023/10/21 06:48:21;;;;;;;17.45;6.22;;;28.40;99.90;;;;;;5060132;28;20647;-94
2023/10/21 06:50:53;;;;;;;14.02;6.40;;;28.50;99.90;;;;;;5064166;28;20239;-94
2023/10/21 06:53:29;;;;;;;13.65;5.95;;;28.50;99.90;;;;;;5062486;28;20228;-96
2023/10/21 06:56:01;;;;;;;17.02;6.40;;;28.50;99.90;;;;;;5065499;28;20268;-96
2023/10/21 06:58:33;;;;;;;16.42;6.35;;;28.20;99.90;;;;;;5064095;28;20535;-96
2023/10/21 07:01:12;;;;;;;18.15;6.03;;;27.70;99.90;;;;;;5059845;28;20240;-96
2023/10/21 07:03:46;;;;;;;17.95;5.55;;;27.00;99.90;;;;;;5048202;28;20220;-96
2023/10/21 07:06:17;;;;;;;17.67;5.97;;;26.40;99.90;;;;;;5061498;28;20231;-95
2023/10/21 07:08:54;;;;;;;19.83;5.60;;;26.00;99.90;;;;;;5047850;28;20213;-94
2023/10/21 07:11:25;;;;;;;18.02;5.75;;;25.50;99.90;;;;;;5041029;28;20213;-95
2023/10/21 07:13:58;;;;;;;15.40;5.22;;;25.30;99.90;;;;;;5052496;28;20208;-94
2023/10/21 07:16:32;;;;;;;17.27;5.43;;;25.20;99.90;;;;;;5066324;28;20200;-94
2023/10/21 07:19:05;;;;;;;13.48;4.80;;;25.20;99.90;;;;;;5048476;28;20211;-95
2023/10/21 07:21:37;;;;;;;17.35;5.10;;;25.40;99.90;;;;;;5048308;28;20599;-94
2023/10/21 07:24:24;;;;;;;15.55;4.40;;;25.50;99.90;;;;;;5039240;28;20209;-96
2023/10/21 07:26:57;;;;;;;18.45;4.85;;;25.40;99.90;;;;;;5064202;22;20200;-78
2023/10/21 07:29:28;;;;;;;17.20;4.68;;;25.20;99.90;;;;;;5051368;28;20665;-78
2023/10/21 07:31:59;;;;;;;16.02;4.68;;;25.20;99.90;;;;;;5052397;28;20200;-78
2023/10/21 07:34:30;;;;;;;15.15;4.22;;;24.90;99.90;;;;;;5053097;28;20200;-79
2023/10/21 07:37:00;;;;;;;16.85;4.22;;;24.90;99.90;;;;;;5033305;28;20201;-78
2023/10/21 07:39:30;;;;;;;18.40;4.10;;;24.80;99.90;;;;;;5035912;28;20205;-77
2023/10/21 07:42:03;;;;;;;20.90;4.63;;;24.70;99.90;;;;;;5032141;28;20205;-77
2023/10/21 07:44:33;;;;;;;21.67;4.35;;;24.50;99.90;;;;;;5032320;28;20670;-78
2023/10/21 07:47:06;;;;;;;18.48;3.88;;;24.50;99.90;;;;;;5032726;28;20215;-78
2023/10/21 07:49:37;;;;;;;13.43;3.80;;;24.30;99.90;;;;;;5032036;28;20205;-78
2023/10/21 07:52:09;;;;;;;21.17;4.50;;;24.20;99.90;;;;;;5032430;28;20201;-79
2023/10/21 07:54:40;;;;;;;13.77;3.42;;;24.10;99.90;;;;;;5038890;28;20280;-79
2023/10/21 07:57:13;;;;;;;21.90;3.97;;;24.00;99.90;;;;;;5031298;28;20233;-78
2023/10/21 07:59:44;;;;;;;19.63;3.70;;;23.90;99.90;;;;;;5031407;28;20201;-78
2023/10/21 08:02:15;;;;;;;17.70;3.83;;;23.90;99.90;;;;;;5031519;28;20642;-78
2023/10/21 08:04:46;;;;;;;20.90;4.22;;;23.80;99.90;;;;;;5030612;28;20201;-78
2023/10/21 08:07:17;;;;;;;15.88;3.45;;;23.80;99.90;;;;;;5031843;28;20197;-78
2023/10/21 08:09:48;;;;;;;17.45;3.60;;;23.70;99.90;;;;;;5031750;28;20551;-79
2023/10/21 08:12:20;;;;;;;15.65;3.45;;;23.60;99.90;;;;;;5031072;28;20197;-79
2023/10/21 08:14:51;;;;;;;16.40;3.63;;;23.50;99.90;;;;;;5030629;28;20204;-77
2023/10/21 08:17:22;;;;;;;19.48;3.75;;;23.50;99.90;;;;;;5031772;28;20240;-78
2023/10/21 08:19:53;;;;;;;15.38;3.83;;;23.40;99.90;;;;;;5022679;28;20194;-79
2023/10/21 08:22:23;;;;;;;20.27;3.90;;;23.40;99.90;;;;;;5012408;28;20681;-78
2023/10/21 08:24:55;;;;;;;22.30;4.47;;;23.40;99.90;;;;;;5012108;28;20566;-79
2023/10/21 08:27:28;;;;;;;20.80;4.07;;;23.40;99.90;;;;;;5030223;28;20286;-79
2023/10/21 08:29:58;;;;;;;21.00;3.83;;;23.30;99.90;;;;;;5031425;28;20200;-79
2023/10/21 08:32:29;;;;;;;19.05;4.20;;;23.30;99.90;;;;;;5036976;28;20288;-78
2023/10/21 08:35:00;;;;;;;19.98;4.00;;;23.30;99.90;;;;;;5038068;28;20279;-79
2023/10/21 08:37:31;;;;;;;20.95;4.03;;;23.20;99.90;;;;;;5036548;28;20592;-77
2023/10/21 08:40:07;;;;;;;19.70;4.15;;;23.20;99.90;;;;;;5036300;28;20703;-78
2023/10/21 08:42:40;;;;;;;21.23;4.13;;;23.10;99.90;;;;;;5040220;28;20684;-78
2023/10/21 08:45:12;;;;;;;23.08;4.22;;;23.10;99.90;;;;;;5033792;28;20203;-77
2023/10/21 08:47:44;;;;;;;23.80;3.92;;;23.10;99.90;;;;;;5033265;28;20644;-78
2023/10/21 08:50:15;;;;;;;17.00;4.05;;;23.10;99.90;;;;;;5024206;28;20205;-78
2023/10/21 08:52:49;;;;;;;14.15;3.38;;;23.00;99.90;;;;;;5028047;28;20197;-78
2023/10/21 08:55:22;;;;;;;15.23;3.25;;;22.90;99.90;;;;;;5033371;28;20197;-78
2023/10/21 08:57:54;;;;;;;17.95;3.58;;;22.80;99.90;;;;;;5034298;28;20201;-77
2023/10/21 09:00:25;;;;;;;19.73;4.03;;;22.80;99.90;;;;;;5037932;28;20257;-78
2023/10/21 09:02:56;;;;;;;21.30;4.13;;;22.80;99.90;;;;;;5032746;28;20280;-78
2023/10/21 09:05:27;;;;;;;15.75;3.40;;;22.80;99.90;;;;;;5033429;28;20197;-78
2023/10/21 09:07:59;;;;;;;23.13;4.22;;;22.80;99.90;;;;;;5036205;28;20182;-79
2023/10/21 09:10:32;;;;;;;16.63;3.92;;;22.80;99.90;;;;;;5033155;28;20198;-78
2023/10/21 09:13:16;;;;;;;21.35;4.20;;;22.70;99.90;;;;;;5033950;28;20267;-78
2023/10/21 09:15:47;;;;;;;17.30;4.10;;;22.70;99.90;;;;;;5031829;28;20201;-78
2023/10/21 09:18:18;;;;;;;22.13;4.25;;;22.70;99.90;;;;;;5033635;28;20244;-78
2023/10/21 09:20:52;;;;;;;25.10;4.75;;;22.70;99.90;;;;;;5032679;28;20680;-78
2023/10/21 09:23:23;;;;;;;21.85;4.57;;;22.70;99.90;;;;;;5054413;28;20696;-78
2023/10/21 09:25:54;;;;;;;24.13;4.40;;;22.70;99.90;;;;;;5040060;28;20592;-77
2023/10/21 09:31:25;;;;;;;16.73;4.25;;;22.60;99.90;;;;;;5038805;28;20208;-78
2023/10/21 09:33:58;;;;;;;19.10;4.10;;;22.60;99.90;;;;;;5030865;28;20198;-77
2023/10/21 09:36:40;;;;;;;19.60;4.22;;;22.60;99.90;;;;;;5033678;28;20309;-77
2023/10/21 09:39:11;;;;;;;19.45;4.07;;;22.50;99.90;;;;;;5033010;28;20688;-78
2023/10/21 09:41:44;;;;;;;16.80;4.25;;;22.50;99.90;;;;;;5033283;28;20252;-78
2023/10/21 09:44:18;;;;;;;21.35;4.50;;;22.50;99.90;;;;;;5039986;28;20200;-77
2023/10/21 09:46:50;;;;;;;19.20;3.78;;;22.50;99.90;;;;;;5037510;28;20289;-77
2023/10/21 09:49:22;;;;;;;19.88;4.57;;;22.50;99.90;;;;;;5034914;28;20212;-77
2023/10/21 09:52:03;;;;;;;24.17;4.30;;;22.40;99.90;;;;;;5032734;28;20205;-78
2023/10/21 09:54:42;;;;;;;20.60;4.35;;;22.50;99.90;;;;;;5032396;28;20197;-78
2023/10/21 09:57:13;;;;;;;21.77;4.28;;;22.40;99.90;;;;;;5032461;28;20605;-77
2023/10/21 09:59:47;;;;;;;21.15;4.85;;;22.30;99.90;;;;;;5031568;28;20224;-78
2023/10/21 10:02:20;;;;;;;24.33;4.88;;;22.30;99.90;;;;;;5031064;28;20224;-78
2023/10/21 10:04:51;;;;;;;15.85;3.58;;;22.30;99.90;;;;;;5031687;28;21111;-78
2023/10/21 10:07:22;;;;;;;20.58;4.53;;;22.30;99.90;;;;;;5036121;28;20650;-77
2023/10/21 10:09:53;;;;;;;20.98;4.55;;;22.30;99.90;;;;;;5037886;28;20565;-77
2023/10/21 10:12:28;;;;;;;19.50;4.28;;;22.30;99.90;;;;;;5034799;28;20201;-77
2023/10/21 10:15:01;;;;;;;21.67;4.93;;;22.40;99.90;;;;;;5037321;28;20222;-78
2023/10/21 10:17:49;;;;;;;27.08;4.25;;;22.40;99.90;;;;;;5037504;28;20207;-77
2023/10/21 10:20:28;;;;;;;23.05;4.25;;;22.40;99.90;;;;;;5036829;28;20209;-79
2023/10/21 10:23:04;;;;;;;24.05;4.43;;;22.30;99.90;;;;;;5029758;28;20189;-78
2023/10/21 10:25:36;;;;;;;21.15;4.07;;;22.30;99.90;;;;;;5029669;28;20189;-77
2023/10/21 10:28:09;;;;;;;20.40;4.25;;;22.30;99.90;;;;;;5035093;28;20325;-77
2023/10/21 10:30:44;;;;;;;17.65;4.20;;;22.30;99.90;;;;;;5035122;28;20205;-78
2023/10/21 10:33:21;;;;;;;24.40;4.50;;;22.30;99.90;;;;;;5019668;28;20623;-77
2023/10/21 10:35:53;;;;;;;18.27;4.25;;;22.30;99.90;;;;;;5014120;28;20213;-77
2023/10/21 10:38:28;;;;;;;20.00;4.68;;;22.30;99.90;;;;;;5028164;28;20612;-77
2023/10/21 10:41:06;;;;;;;23.08;4.50;;;22.20;99.90;;;;;;5033775;28;20248;-77
2023/10/21 10:43:37;;;;;;;20.27;4.10;;;22.30;99.90;;;;;;5029808;28;20212;-79
2023/10/21 10:46:10;;;;;;;23.73;4.50;;;22.20;99.90;;;;;;5033845;28;20535;-78
2023/10/21 10:48:41;;;;;;;23.58;4.50;;;22.10;99.90;;;;;;5041772;28;20286;-78
2023/10/21 10:51:14;;;;;;;27.45;4.38;;;22.10;99.90;;;;;;5033218;28;20212;-79
2023/10/21 10:53:52;;;;;;;22.27;4.75;;;22.10;99.90;;;;;;5033207;28;20197;-77
2023/10/21 10:56:23;;;;;;;22.25;4.40;;;22.10;99.90;;;;;;5034894;28;20674;-78
2023/10/21 10:58:53;;;;;;;19.65;3.95;;;22.10;99.90;;;;;;5033678;28;21133;-78
2023/10/21 11:01:27;;;;;;;22.00;4.72;;;22.10;99.90;;;;;;5034548;28;20205;-77
2023/10/21 11:04:00;;;;;;;25.27;4.65;;;22.10;99.90;;;;;;5036074;28;20212;-78
2023/10/21 11:06:34;;;;;;;21.13;4.65;;;22.10;99.90;;;;;;5038631;28;20205;-80
2023/10/21 11:09:06;;;;;;;15.98;4.28;;;22.00;99.90;;;;;;5034788;28;20197;-77
2023/10/21 11:11:48;;;;;;;26.27;4.55;;;22.00;99.90;;;;;;5033078;28;20236;-76
2023/10/21 11:14:20;;;;;;;21.20;4.47;;;21.90;99.90;;;;;;5032861;28;20205;-78
2023/10/21 11:16:53;;;;;;;21.35;4.32;;;21.90;99.90;;;;;;5031205;28;20261;-78
2023/10/21 11:19:26;;;;;;;19.58;3.97;;;21.90;99.90;;;;;;5034407;28;20198;-78
2023/10/21 11:21:57;;;;;;;24.15;5.07;;;21.90;99.90;;;;;;5035622;28;20530;-77
2023/10/21 11:24:28;;;;;;;27.02;5.05;;;22.00;99.90;;;;;;5035840;28;20292;-77
2023/10/21 11:26:59;;;;;;;18.73;4.53;;;22.00;99.90;;;;;;5037822;28;20563;-77
2023/10/21 11:29:30;;;;;;;19.88;4.47;;;22.00;99.90;;;;;;5035293;28;20203;-78
2023/10/21 11:32:02;;;;;;;27.13;5.00;;;22.00;99.90;;;;;;5032652;28;20197;-78
2023/10/21 11:34:33;;;;;;;21.55;5.20;;;22.00;99.90;;;;;;5013723;28;20742;-78
2023/10/21 11:37:04;;;;;;;19.25;3.92;;;22.00;99.90;;;;;;5027603;28;20202;-78
2023/10/21 11:39:35;;;;;;;20.00;4.15;;;21.90;99.90;;;;;;5032359;28;20247;-77
2023/10/21 11:42:16;;;;;;;22.73;4.78;;;22.00;99.90;;;;;;5034508;28;20221;-77
2023/10/21 11:44:57;;;;;;;18.17;4.15;;;21.90;99.90;;;;;;5034176;28;20193;-78
2023/10/21 11:47:33;;;;;;;20.42;4.07;;;21.90;99.90;;;;;;5032851;28;20205;-77
2023/10/21 11:50:04;;;;;;;19.83;4.53;;;21.90;99.90;;;;;;5030386;28;20238;-78
2023/10/21 11:52:42;;;;;;;25.25;5.28;;;21.90;99.90;;;;;;5036644;28;20205;-78
2023/10/21 11:55:55;;;;;;;24.50;5.55;;;21.80;99.90;;;;;;5033060;28;20209;-78
2023/10/21 12:12:53;;;;;;;19.50;4.82;;;21.90;99.90;;;;;;5035765;28;20209;-77
2023/10/21 12:21:14;;;;;;;17.48;4.63;;;21.80;99.90;;;;;;5028788;28;20200;-78
2023/10/21 12:24:16;;;;;;;23.48;5.18;;;21.70;99.90;;;;;;5026748;28;20243;-77
2023/10/21 12:38:41;;;;;;;23.85;5.10;;;21.80;99.90;;;;;;5002877;28;20721;-79
2023/10/21 12:41:20;;;;;;;20.90;4.90;;;21.80;99.90;;;;;;5023580;28;20208;-78
2023/10/21 12:43:52;;;;;;;19.38;4.43;;;21.80;99.90;;;;;;5037143;28;20257;-79
2023/10/21 12:46:25;;;;;;;16.00;4.55;;;21.80;99.90;;;;;;5023055;28;20213;-80
2023/10/21 12:48:57;;;;;;;20.13;5.00;;;21.70;99.90;;;;;;5030808;28;20523;-79
2023/10/21 12:51:30;;;;;;;18.17;4.85;;;21.80;99.90;;;;;;5033378;28;20228;-79
2023/10/21 12:54:01;;;;;;;21.65;4.90;;;21.70;99.90;;;;;;5038316;28;20205;-79
2023/10/21 12:56:31;;;;;;;16.05;4.65;;;21.70;99.90;;;;;;5019695;28;20671;-78
2023/10/21 12:59:02;;;;;;;17.70;4.78;;;21.70;99.90;;;;;;5029595;28;20224;-79
2023/10/21 13:01:33;;;;;;;19.23;5.22;;;21.70;99.90;;;;;;5030526;28;20233;-79
2023/10/21 13:04:04;;;;;;;18.27;5.57;;;21.70;99.90;;;;;;5031269;28;20201;-78
2023/10/21 13:06:37;;;;;;;19.92;5.63;;;21.70;99.90;;;;;;5031289;28;20193;-79
2023/10/21 13:11:51;;;;;;;25.05;5.68;;;21.70;99.90;;;;;;5012849;28;20278;-79
2023/10/21 13:14:23;;;;;;;22.33;6.00;;;21.60;99.90;;;;;;5014545;28;20630;-78
2023/10/21 13:16:54;;;;;;;23.85;5.32;;;21.60;99.90;;;;;;5031149;28;20259;-78
2023/10/21 13:19:25;;;;;;;16.05;4.85;;;21.60;99.90;;;;;;5031303;28;20197;-77
2023/10/21 13:21:59;;;;;;;18.58;5.32;;;21.60;99.90;;;;;;5031705;28;20225;-79
2023/10/21 13:24:29;;;;;;;17.73;5.20;;;21.60;99.90;;;;;;5032458;28;20570;-78
2023/10/21 13:27:00;;;;;;;19.83;5.63;;;21.70;99.90;;;;;;5031846;28;20685;-77
2023/10/21 13:29:31;;;;;;;18.13;5.13;;;21.70;99.90;;;;;;5031107;28;20205;-78
2023/10/21 13:32:02;;;;;;;18.17;4.95;;;21.70;99.90;;;;;;5015698;28;20209;-79
2023/10/21 13:34:33;;;;;;;20.60;5.60;;;21.80;99.90;;;;;;5022811;28;20198;-77
2023/10/21 13:37:06;;;;;;;16.42;5.10;;;21.80;99.90;;;;;;5028860;28;20193;-77
2023/10/21 13:39:36;;;;;;;20.25;5.35;;;21.80;99.90;;;;;;5029383;28;20197;-79
2023/10/21 13:42:07;;;;;;;16.33;5.18;;;21.80;99.90;;;;;;5030166;28;20221;-80
2023/10/21 13:44:38;;;;;;;19.52;5.70;;;21.80;99.90;;;;;;5025105;28;20209;-78
2023/10/21 13:47:11;;;;;;;18.52;5.07;;;21.80;99.90;;;;;;5019182;28;20202;-79
2023/10/21 13:49:45;;;;;;;18.92;5.57;;;21.80;99.90;;;;;;5028695;28;20197;-80
2023/10/21 13:52:17;;;;;;;23.48;5.53;;;21.70;99.90;;;;;;5029679;28;20201;-79
2023/10/21 13:54:48;;;;;;;18.70;5.38;;;21.70;99.90;;;;;;5020339;28;20216;-79
2023/10/21 13:57:19;;;;;;;19.02;5.65;;;21.70;99.90;;;;;;5032624;28;20202;-78
2023/10/21 13:59:49;;;;;;;22.60;5.60;;;21.70;99.90;;;;;;5030861;28;20667;-78
2023/10/21 14:02:20;;;;;;;18.55;5.30;;;21.60;99.90;;;;;;5024925;28;20681;-78
2023/10/21 14:04:51;;;;;;;20.20;5.45;;;21.70;99.90;;;;;;5030528;28;20197;-77
2023/10/21 14:07:24;;;;;;;19.70;4.90;;;21.70;99.90;;;;;;5029460;28;20197;-78
2023/10/21 14:09:54;;;;;;;18.58;5.53;;;21.70;99.90;;;;;;5028675;28;20205;-78
2023/10/21 14:12:25;;;;;;;20.70;5.68;;;21.70;99.90;;;;;;5018546;28;20281;-78
2023/10/21 14:15:05;;;;;;;17.00;5.10;;;21.70;99.90;;;;;;5016840;28;20646;-78
2023/10/21 14:17:38;;;;;;;17.92;5.95;;;21.60;99.90;;;;;;5036420;28;20221;-77
2023/10/21 14:20:10;;;;;;;19.60;5.32;;;21.60;99.90;;;;;;5050745;28;20633;-78
2023/10/21 14:22:43;;;;;;;24.60;6.45;;;21.60;99.90;;;;;;5043061;28;20274;-78
2023/10/21 14:25:14;;;;;;;22.58;5.80;;;21.60;99.90;;;;;;5030409;28;20201;-78
2023/10/21 14:27:46;;;;;;;20.25;6.20;;;21.60;99.90;;;;;;5030980;28;20232;-78
2023/10/21 14:30:16;;;;;;;24.17;6.50;;;21.50;99.90;;;;;;5024347;28;20194;-78
2023/10/21 14:32:48;;;;;;;19.70;5.82;;;21.50;99.90;;;;;;5030173;28;20197;-79
2023/10/21 14:35:18;;;;;;;16.98;5.40;;;21.50;99.90;;;;;;5030900;28;20202;-78
2023/10/21 14:37:51;;;;;;;18.63;5.70;;;21.50;99.90;;;;;;5030591;28;20201;-78
2023/10/21 14:40:22;;;;;;;21.60;6.38;;;21.50;99.90;;;;;;5029176;28;20208;-79
2023/10/21 14:42:52;;;;;;;23.90;6.65;;;21.50;99.90;;;;;;5029829;28;20236;-77
2023/10/21 14:45:23;;;;;;;20.73;6.32;;;21.50;99.90;;;;;;5027384;28;20224;-78
2023/10/21 14:47:54;;;;;;;25.58;6.25;;;21.40;99.90;;;;;;5030357;28;20194;-78
2023/10/21 14:50:27;;;;;;;21.27;5.43;;;21.40;99.90;;;;;;5029918;28;20278;-77
2023/10/21 14:53:00;;;;;;;16.58;5.90;;;21.30;99.90;;;;;;5033347;28;20205;-77
2023/10/21 14:55:32;;;;;;;21.73;6.50;;;21.30;99.90;;;;;;5033145;28;20201;-79
2023/10/21 14:58:03;;;;;;;22.40;6.03;;;21.30;99.90;;;;;;5033116;28;20628;-76
2023/10/21 15:00:33;;;;;;;24.00;6.35;;;21.30;99.90;;;;;;5040130;28;20264;-77
2023/10/21 15:03:05;;;;;;;21.52;6.80;;;21.30;99.90;;;;;;5038597;28;20223;-77
2023/10/21 15:05:36;;;;;;;22.60;6.13;;;21.30;99.90;;;;;;5034155;28;20204;-77
2023/10/21 15:08:09;;;;;;;25.30;6.90;;;21.20;99.90;;;;;;5029939;28;20884;-77
2023/10/21 15:10:40;;;;;;;21.40;6.32;;;21.20;99.90;;;;;;5019242;28;20298;-77
2023/10/21 15:13:11;;;;;;;21.40;6.10;;;21.20;99.90;;;;;;5016806;28;20193;-77
2023/10/21 15:15:42;;;;;;;18.85;5.80;;;21.20;99.90;;;;;;5032730;28;20208;-76
2023/10/21 15:18:13;;;;;;;20.02;6.68;;;21.20;99.90;;;;;;5030616;28;20197;-76